sensor_id;sensor_type;location;lat;lon;timestamp;pressure;altitude;pressure_sealevel;temperature;humidity
16777;BME280;8505;49.456;8.164;2023-03-20T00:01:57;99967.50;;;10.14;80.71
16777;BME280;8505;49.456;8.164;2023-03-20T00:04:25;99964.84;;;10.14;80.47
16777;BME280;8505;49.456;8.164;2023-03-20T00:06:53;99962.41;;;10.21;80.40
16777;BME280;8505;49.456;8.164;2023-03-20T00:09:20;99971.66;;;10.25;80.09
16777;BME280;8505;49.456;8.164;2023-03-20T00:11:52;99964.75;;;10.24;81.15
16777;BME280;8505;49.456;8.164;2023-03-20T00:14:21;99960.59;;;10.21;80.02
16777;BME280;8505;49.456;8.164;2023-03-20T00:16:51;99967.56;;;10.30;80.19
16777;BME280;8505;49.456;8.164;2023-03-20T00:19:21;99975.03;;;10.43;79.18
16777;BME280;8505;49.456;8.164;2023-03-20T00:21:51;99965.25;;;10.60;77.91
16777;BME280;8505;49.456;8.164;2023-03-20T00:24:19;99969.53;;;10.44;78.09
16777;BME280;8505;49.456;8.164;2023-03-20T00:26:48;99974.16;;;10.75;77.61
16777;BME280;8505;49.456;8.164;2023-03-20T00:29:20;99972.53;;;10.41;78.31
16777;BME280;8505;49.456;8.164;2023-03-20T00:31:48;99976.16;;;10.40;78.88
16777;BME280;8505;49.456;8.164;2023-03-20T00:34:17;99983.78;;;10.51;77.52
16777;BME280;8505;49.456;8.164;2023-03-20T00:36:47;99981.13;;;10.51;78.42
16777;BME280;8505;49.456;8.164;2023-03-20T00:39:15;99985.91;;;10.80;77.36
16777;BME280;8505;49.456;8.164;2023-03-20T00:41:43;99993.41;;;10.61;77.41
16777;BME280;8505;49.456;8.164;2023-03-20T00:44:22;99991.06;;;10.82;77.20
16777;BME280;8505;49.456;8.164;2023-03-20T00:46:53;99986.44;;;10.60;77.60
16777;BME280;8505;49.456;8.164;2023-03-20T00:49:24;99985.78;;;10.58;78.22
16777;BME280;8505;49.456;8.164;2023-03-20T00:51:53;99990.06;;;10.42;79.01
16777;BME280;8505;49.456;8.164;2023-03-20T00:54:22;99978.78;;;10.32;79.20
16777;BME280;8505;49.456;8.164;2023-03-20T00:56:54;99987.22;;;10.28;79.80
16777;BME280;8505;49.456;8.164;2023-03-20T00:59:25;99986.56;;;10.26;79.89
16777;BME280;8505;49.456;8.164;2023-03-20T01:01:54;99984.75;;;10.34;79.65
16777;BME280;8505;49.456;8.164;2023-03-20T01:04:21;99986.44;;;10.51;79.02
16777;BME280;8505;49.456;8.164;2023-03-20T01:06:49;99988.59;;;10.48;78.77
16777;BME280;8505;49.456;8.164;2023-03-20T01:09:19;99990.41;;;10.47;79.23
16777;BME280;8505;49.456;8.164;2023-03-20T01:11:47;99983.75;;;10.43;78.92
16777;BME280;8505;49.456;8.164;2023-03-20T01:14:14;99984.13;;;10.48;78.95
16777;BME280;8505;49.456;8.164;2023-03-20T01:16:43;99984.41;;;10.37;79.42
16777;BME280;8505;49.456;8.164;2023-03-20T01:19:12;99989.22;;;10.26;80.21
16777;BME280;8505;49.456;8.164;2023-03-20T01:21:42;99997.97;;;10.26;79.45
16777;BME280;8505;49.456;8.164;2023-03-20T01:24:09;99995.34;;;10.34;79.88
16777;BME280;8505;49.456;8.164;2023-03-20T01:26:40;99996.53;;;10.48;78.96
16777;BME280;8505;49.456;8.164;2023-03-20T01:29:16;99995.19;;;10.52;79.03
16777;BME280;8505;49.456;8.164;2023-03-20T01:31:45;100001.31;;;10.36;79.69
16777;BME280;8505;49.456;8.164;2023-03-20T01:34:14;100006.94;;;10.33;79.80
16777;BME280;8505;49.456;8.164;2023-03-20T01:36:45;100005.25;;;10.32;79.70
16777;BME280;8505;49.456;8.164;2023-03-20T01:39:15;100005.59;;;10.21;79.99
16777;BME280;8505;49.456;8.164;2023-03-20T01:41:45;100008.34;;;10.11;80.77
16777;BME280;8505;49.456;8.164;2023-03-20T01:44:19;100005.25;;;9.82;82.31
16777;BME280;8505;49.456;8.164;2023-03-20T01:46:48;100005.44;;;9.81;82.60
16777;BME280;8505;49.456;8.164;2023-03-20T01:52:21;100011.38;;;9.83;82.68
16777;BME280;8505;49.456;8.164;2023-03-20T01:54:49;100010.06;;;9.79;82.83
16777;BME280;8505;49.456;8.164;2023-03-20T01:57:19;100008.88;;;9.73;83.28
16777;BME280;8505;49.456;8.164;2023-03-20T01:59:50;100008.34;;;9.69;83.23
16777;BME280;8505;49.456;8.164;2023-03-20T02:02:21;100019.66;;;9.80;83.29
16777;BME280;8505;49.456;8.164;2023-03-20T02:04:53;100012.06;;;9.85;82.94
16777;BME280;8505;49.456;8.164;2023-03-20T02:07:22;100015.34;;;9.79;83.14
16777;BME280;8505;49.456;8.164;2023-03-20T02:09:51;100013.69;;;9.78;83.45
16777;BME280;8505;49.456;8.164;2023-03-20T02:12:20;100012.50;;;9.72;83.58
16777;BME280;8505;49.456;8.164;2023-03-20T02:14:48;100012.69;;;9.79;83.66
16777;BME280;8505;49.456;8.164;2023-03-20T02:17:18;100007.28;;;9.88;83.29
16777;BME280;8505;49.456;8.164;2023-03-20T02:19:53;100003.63;;;9.89;83.14
16777;BME280;8505;49.456;8.164;2023-03-20T02:23:02;100007.78;;;9.92;83.09
16777;BME280;8505;49.456;8.164;2023-03-20T02:25:56;100009.56;;;9.83;83.48
16777;BME280;8505;49.456;8.164;2023-03-20T02:29:05;100010.75;;;9.89;83.56
16777;BME280;8505;49.456;8.164;2023-03-20T02:32:10;100012.75;;;9.87;83.72
16777;BME280;8505;49.456;8.164;2023-03-20T02:35:01;100013.72;;;9.86;83.68
16777;BME280;8505;49.456;8.164;2023-03-20T02:37:59;100026.28;;;9.84;84.14
16777;BME280;8505;49.456;8.164;2023-03-20T02:40:36;100020.16;;;9.83;84.28
16777;BME280;8505;49.456;8.164;2023-03-20T02:43:14;100017.66;;;9.73;84.88
16777;BME280;8505;49.456;8.164;2023-03-20T02:45:48;100015.84;;;9.74;85.13
16777;BME280;8505;49.456;8.164;2023-03-20T02:48:28;100018.44;;;9.66;85.36
16777;BME280;8505;49.456;8.164;2023-03-20T02:51:02;100023.25;;;9.70;85.52
16777;BME280;8505;49.456;8.164;2023-03-20T02:53:41;100022.94;;;9.73;85.68
16777;BME280;8505;49.456;8.164;2023-03-20T02:56:17;100022.25;;;9.71;85.47
16777;BME280;8505;49.456;8.164;2023-03-20T02:58:50;100029.34;;;9.71;85.70
16777;BME280;8505;49.456;8.164;2023-03-20T03:01:23;100025.78;;;9.80;85.35
16777;BME280;8505;49.456;8.164;2023-03-20T03:03:55;100023.59;;;9.75;85.43
16777;BME280;8505;49.456;8.164;2023-03-20T03:06:26;100021.94;;;9.74;85.91
16777;BME280;8505;49.456;8.164;2023-03-20T03:08:59;100026.72;;;9.71;85.98
16777;BME280;8505;49.456;8.164;2023-03-20T03:11:29;100024.75;;;9.73;85.69
16777;BME280;8505;49.456;8.164;2023-03-20T03:13:58;100023.09;;;9.72;85.84
16777;BME280;8505;49.456;8.164;2023-03-20T03:16:29;100024.59;;;9.74;86.01
16777;BME280;8505;49.456;8.164;2023-03-20T03:19:04;100018.94;;;9.69;86.04
16777;BME280;8505;49.456;8.164;2023-03-20T03:21:34;100018.44;;;9.66;86.12
16777;BME280;8505;49.456;8.164;2023-03-20T03:24:06;100014.97;;;9.65;86.19
16777;BME280;8505;49.456;8.164;2023-03-20T03:27:00;99997.78;;;9.69;86.14
16777;BME280;8505;49.456;8.164;2023-03-20T03:29:33;99992.50;;;9.69;86.32
16777;BME280;8505;49.456;8.164;2023-03-20T03:32:04;99999.13;;;9.73;86.19
16777;BME280;8505;49.456;8.164;2023-03-20T03:34:33;100000.06;;;9.64;86.35
16777;BME280;8505;49.456;8.164;2023-03-20T03:37:06;100002.13;;;9.79;85.98
16777;BME280;8505;49.456;8.164;2023-03-20T03:39:41;99995.69;;;9.81;85.79
16777;BME280;8505;49.456;8.164;2023-03-20T03:42:19;100004.44;;;9.73;85.91
16777;BME280;8505;49.456;8.164;2023-03-20T03:44:55;100006.72;;;9.68;86.22
16777;BME280;8505;49.456;8.164;2023-03-20T03:47:30;100008.06;;;9.72;86.06
16777;BME280;8505;49.456;8.164;2023-03-20T03:50:02;100015.47;;;9.69;86.42
16777;BME280;8505;49.456;8.164;2023-03-20T03:52:33;100010.34;;;9.67;86.07
16777;BME280;8505;49.456;8.164;2023-03-20T03:55:06;100016.34;;;9.78;86.05
16777;BME280;8505;49.456;8.164;2023-03-20T03:57:39;100013.28;;;9.64;86.48
16777;BME280;8505;49.456;8.164;2023-03-20T04:00:10;100020.59;;;9.70;86.29
16777;BME280;8505;49.456;8.164;2023-03-20T04:02:41;100023.91;;;9.72;86.09
16777;BME280;8505;49.456;8.164;2023-03-20T04:05:11;100019.50;;;9.81;85.55
16777;BME280;8505;49.456;8.164;2023-03-20T04:07:43;100036.03;;;9.83;85.77
16777;BME280;8505;49.456;8.164;2023-03-20T04:10:13;100027.25;;;9.83;85.17
16777;BME280;8505;49.456;8.164;2023-03-20T04:12:42;100036.66;;;9.77;85.51
16777;BME280;8505;49.456;8.164;2023-03-20T04:15:11;100041.44;;;9.73;85.77
16777;BME280;8505;49.456;8.164;2023-03-20T04:17:39;100035.44;;;9.63;86.11
16777;BME280;8505;49.456;8.164;2023-03-20T04:20:08;100031.50;;;9.67;85.91
16777;BME280;8505;49.456;8.164;2023-03-20T04:22:36;100029.34;;;9.71;86.01
16777;BME280;8505;49.456;8.164;2023-03-20T04:25:08;100018.59;;;9.64;85.98
16777;BME280;8505;49.456;8.164;2023-03-20T04:27:38;100022.59;;;9.68;85.80
16777;BME280;8505;49.456;8.164;2023-03-20T04:30:06;100033.84;;;9.79;85.76
16777;BME280;8505;49.456;8.164;2023-03-20T04:32:34;100030.09;;;9.81;85.32
16777;BME280;8505;49.456;8.164;2023-03-20T04:35:03;100038.00;;;9.81;85.53
16777;BME280;8505;49.456;8.164;2023-03-20T04:37:31;100042.13;;;9.84;85.40
16777;BME280;8505;49.456;8.164;2023-03-20T04:39:59;100040.47;;;9.83;85.27
16777;BME280;8505;49.456;8.164;2023-03-20T04:42:27;100034.84;;;9.78;85.39
16777;BME280;8505;49.456;8.164;2023-03-20T04:44:56;100037.84;;;9.83;85.08
16777;BME280;8505;49.456;8.164;2023-03-20T04:47:24;100034.88;;;9.86;84.84
16777;BME280;8505;49.456;8.164;2023-03-20T04:49:52;100047.13;;;9.87;84.82
16777;BME280;8505;49.456;8.164;2023-03-20T04:52:20;100043.50;;;9.96;84.74
16777;BME280;8505;49.456;8.164;2023-03-20T04:54:47;100038.50;;;9.85;85.04
16777;BME280;8505;49.456;8.164;2023-03-20T04:57:15;100045.84;;;9.99;84.67
16777;BME280;8505;49.456;8.164;2023-03-20T04:59:43;100042.19;;;9.92;84.57
16777;BME280;8505;49.456;8.164;2023-03-20T05:02:12;100041.88;;;10.03;84.24
16777;BME280;8505;49.456;8.164;2023-03-20T05:04:40;100046.22;;;10.12;83.75
16777;BME280;8505;49.456;8.164;2023-03-20T05:07:08;100056.78;;;10.04;84.00
16777;BME280;8505;49.456;8.164;2023-03-20T05:09:37;100057.00;;;10.19;84.30
16777;BME280;8505;49.456;8.164;2023-03-20T05:12:05;100058.84;;;10.26;83.31
16777;BME280;8505;49.456;8.164;2023-03-20T05:14:33;100063.97;;;10.20;83.18
16777;BME280;8505;49.456;8.164;2023-03-20T05:17:00;100069.38;;;10.10;83.06
16777;BME280;8505;49.456;8.164;2023-03-20T05:19:29;100065.78;;;10.19;82.96
16777;BME280;8505;49.456;8.164;2023-03-20T05:21:57;100069.78;;;10.31;83.37
16777;BME280;8505;49.456;8.164;2023-03-20T05:24:25;100065.84;;;10.35;82.72
16777;BME280;8505;49.456;8.164;2023-03-20T05:26:54;100068.97;;;10.39;82.48
16777;BME280;8505;49.456;8.164;2023-03-20T05:29:22;100066.94;;;10.25;83.01
16777;BME280;8505;49.456;8.164;2023-03-20T05:31:50;100062.00;;;10.22;83.21
16777;BME280;8505;49.456;8.164;2023-03-20T05:34:18;100061.66;;;10.25;83.02
16777;BME280;8505;49.456;8.164;2023-03-20T05:36:47;100060.22;;;10.38;82.69
16777;BME280;8505;49.456;8.164;2023-03-20T05:39:16;100070.63;;;10.40;82.19
16777;BME280;8505;49.456;8.164;2023-03-20T05:41:44;100060.38;;;10.45;81.77
16777;BME280;8505;49.456;8.164;2023-03-20T05:44:11;100068.53;;;10.68;81.47
16777;BME280;8505;49.456;8.164;2023-03-20T05:46:39;100065.25;;;10.74;81.06
16777;BME280;8505;49.456;8.164;2023-03-20T05:49:07;100057.59;;;10.63;81.56
16777;BME280;8505;49.456;8.164;2023-03-20T05:51:35;100052.00;;;10.66;81.44
16777;BME280;8505;49.456;8.164;2023-03-20T05:54:04;100062.09;;;10.70;81.43
16777;BME280;8505;49.456;8.164;2023-03-20T05:56:32;100071.00;;;10.69;81.34
16777;BME280;8505;49.456;8.164;2023-03-20T05:59:00;100077.66;;;10.81;80.99
16777;BME280;8505;49.456;8.164;2023-03-20T06:01:28;100085.44;;;10.67;80.66
16777;BME280;8505;49.456;8.164;2023-03-20T06:03:55;100092.38;;;10.60;81.19
16777;BME280;8505;49.456;8.164;2023-03-20T06:06:23;100093.34;;;10.59;81.45
16777;BME280;8505;49.456;8.164;2023-03-20T06:08:51;100096.34;;;10.64;81.64
16777;BME280;8505;49.456;8.164;2023-03-20T06:11:20;100104.09;;;10.57;81.85
16777;BME280;8505;49.456;8.164;2023-03-20T06:13:48;100095.34;;;10.65;81.86
16777;BME280;8505;49.456;8.164;2023-03-20T06:16:19;100103.94;;;10.59;81.78
16777;BME280;8505;49.456;8.164;2023-03-20T06:18:47;100091.66;;;10.49;82.10
16777;BME280;8505;49.456;8.164;2023-03-20T06:21:15;100102.03;;;10.27;83.64
16777;BME280;8505;49.456;8.164;2023-03-20T06:23:43;100102.22;;;10.33;83.65
16777;BME280;8505;49.456;8.164;2023-03-20T06:26:11;100110.50;;;10.30;83.58
16777;BME280;8505;49.456;8.164;2023-03-20T06:28:40;100115.06;;;10.20;83.74
16777;BME280;8505;49.456;8.164;2023-03-20T06:31:08;100110.00;;;10.35;83.78
16777;BME280;8505;49.456;8.164;2023-03-20T06:33:35;100116.25;;;10.26;84.20
16777;BME280;8505;49.456;8.164;2023-03-20T06:36:04;100125.50;;;10.22;84.23
16777;BME280;8505;49.456;8.164;2023-03-20T06:38:31;100122.38;;;10.18;84.60
16777;BME280;8505;49.456;8.164;2023-03-20T06:40:59;100126.34;;;10.22;84.41
16777;BME280;8505;49.456;8.164;2023-03-20T06:43:27;100132.13;;;10.26;83.86
16777;BME280;8505;49.456;8.164;2023-03-20T06:45:56;100130.06;;;10.11;84.64
16777;BME280;8505;49.456;8.164;2023-03-20T06:48:24;100123.28;;;10.09;85.03
16777;BME280;8505;49.456;8.164;2023-03-20T06:50:52;100123.41;;;10.07;85.06
16777;BME280;8505;49.456;8.164;2023-03-20T06:53:20;100120.22;;;9.96;85.54
16777;BME280;8505;49.456;8.164;2023-03-20T06:55:49;100116.81;;;10.03;86.29
16777;BME280;8505;49.456;8.164;2023-03-20T06:58:17;100119.78;;;10.08;85.20
16777;BME280;8505;49.456;8.164;2023-03-20T07:00:45;100109.97;;;9.93;85.79
16777;BME280;8505;49.456;8.164;2023-03-20T07:03:14;100109.34;;;10.07;85.61
16777;BME280;8505;49.456;8.164;2023-03-20T07:05:42;100105.22;;;10.04;85.38
16777;BME280;8505;49.456;8.164;2023-03-20T07:08:11;100109.47;;;10.31;84.46
16777;BME280;8505;49.456;8.164;2023-03-20T07:10:39;100106.69;;;10.33;84.44
16777;BME280;8505;49.456;8.164;2023-03-20T07:13:06;100104.28;;;10.64;83.58
16777;BME280;8505;49.456;8.164;2023-03-20T07:15:34;100103.31;;;10.73;82.12
16777;BME280;8505;49.456;8.164;2023-03-20T07:18:03;100095.53;;;10.87;82.00
16777;BME280;8505;49.456;8.164;2023-03-20T07:20:32;100099.00;;;10.72;82.33
16777;BME280;8505;49.456;8.164;2023-03-20T07:23:00;100104.78;;;10.75;82.50
16777;BME280;8505;49.456;8.164;2023-03-20T07:25:28;100106.13;;;10.87;81.69
16777;BME280;8505;49.456;8.164;2023-03-20T07:28:07;100107.31;;;11.17;82.02
16777;BME280;8505;49.456;8.164;2023-03-20T07:30:35;100112.28;;;11.20;79.95
16777;BME280;8505;49.456;8.164;2023-03-20T07:33:03;100115.25;;;11.25;79.56
16777;BME280;8505;49.456;8.164;2023-03-20T07:35:33;100125.84;;;10.93;80.66
16777;BME280;8505;49.456;8.164;2023-03-20T07:38:01;100120.97;;;10.56;82.52
16777;BME280;8505;49.456;8.164;2023-03-20T07:40:29;100136.19;;;10.46;82.99
16777;BME280;8505;49.456;8.164;2023-03-20T07:42:57;100140.69;;;10.53;82.82
16777;BME280;8505;49.456;8.164;2023-03-20T07:45:26;100134.75;;;10.60;82.31
16777;BME280;8505;49.456;8.164;2023-03-20T07:47:54;100137.03;;;10.54;82.72
16777;BME280;8505;49.456;8.164;2023-03-20T07:50:22;100139.88;;;10.61;82.36
16777;BME280;8505;49.456;8.164;2023-03-20T07:52:51;100146.28;;;10.50;82.77
16777;BME280;8505;49.456;8.164;2023-03-20T07:55:19;100153.59;;;10.48;82.72
16777;BME280;8505;49.456;8.164;2023-03-20T07:57:47;100154.41;;;10.57;82.69
16777;BME280;8505;49.456;8.164;2023-03-20T08:00:17;100150.31;;;10.71;81.58
16777;BME280;8505;49.456;8.164;2023-03-20T08:02:45;100159.91;;;10.64;81.65
16777;BME280;8505;49.456;8.164;2023-03-20T08:05:13;100142.38;;;10.71;82.02
16777;BME280;8505;49.456;8.164;2023-03-20T08:07:41;100152.75;;;10.48;82.77
16777;BME280;8505;49.456;8.164;2023-03-20T08:10:12;100146.72;;;10.80;81.59
16777;BME280;8505;49.456;8.164;2023-03-20T08:12:40;100160.84;;;11.05;80.72
16777;BME280;8505;49.456;8.164;2023-03-20T08:15:08;100152.66;;;10.82;81.56
16777;BME280;8505;49.456;8.164;2023-03-20T08:17:36;100149.03;;;10.91;81.49
16777;BME280;8505;49.456;8.164;2023-03-20T08:20:05;100155.03;;;11.25;80.40
16777;BME280;8505;49.456;8.164;2023-03-20T08:22:33;100162.31;;;11.23;79.69
16777;BME280;8505;49.456;8.164;2023-03-20T08:25:01;100155.66;;;11.11;79.47
16777;BME280;8505;49.456;8.164;2023-03-20T08:27:30;100155.66;;;11.11;79.81
16777;BME280;8505;49.456;8.164;2023-03-20T08:29:58;100160.69;;;11.22;79.89
16777;BME280;8505;49.456;8.164;2023-03-20T08:32:26;100158.00;;;11.30;78.67
16777;BME280;8505;49.456;8.164;2023-03-20T08:34:54;100169.72;;;10.87;80.09
16777;BME280;8505;49.456;8.164;2023-03-20T08:37:22;100161.47;;;11.07;79.14
16777;BME280;8505;49.456;8.164;2023-03-20T08:39:49;100159.66;;;11.07;79.00
16777;BME280;8505;49.456;8.164;2023-03-20T08:42:17;100159.31;;;11.02;79.29
16777;BME280;8505;49.456;8.164;2023-03-20T08:44:46;100162.63;;;10.96;79.69
16777;BME280;8505;49.456;8.164;2023-03-20T08:47:14;100168.25;;;10.85;80.22
16777;BME280;8505;49.456;8.164;2023-03-20T08:49:42;100165.91;;;10.82;80.68
16777;BME280;8505;49.456;8.164;2023-03-20T08:52:10;100172.19;;;10.73;81.36
16777;BME280;8505;49.456;8.164;2023-03-20T08:54:38;100182.44;;;10.76;81.13
16777;BME280;8505;49.456;8.164;2023-03-20T08:57:06;100182.38;;;11.10;79.98
16777;BME280;8505;49.456;8.164;2023-03-20T08:59:33;100187.31;;;10.97;80.43
16777;BME280;8505;49.456;8.164;2023-03-20T09:02:03;100186.97;;;10.91;80.32
16777;BME280;8505;49.456;8.164;2023-03-20T09:04:31;100191.81;;;11.04;80.32
16777;BME280;8505;49.456;8.164;2023-03-20T09:06:59;100190.63;;;11.07;78.82
16777;BME280;8505;49.456;8.164;2023-03-20T09:09:28;100184.00;;;11.03;78.87
16777;BME280;8505;49.456;8.164;2023-03-20T09:11:57;100195.78;;;11.08;79.44
16777;BME280;8505;49.456;8.164;2023-03-20T09:14:26;100199.41;;;11.07;78.71
16777;BME280;8505;49.456;8.164;2023-03-20T09:16:54;100196.94;;;11.14;78.54
16777;BME280;8505;49.456;8.164;2023-03-20T09:19:24;100196.09;;;10.97;78.36
16777;BME280;8505;49.456;8.164;2023-03-20T09:21:52;100197.19;;;10.86;78.63
16777;BME280;8505;49.456;8.164;2023-03-20T09:24:20;100194.56;;;10.86;79.18
16777;BME280;8505;49.456;8.164;2023-03-20T09:26:48;100198.72;;;10.89;78.34
16777;BME280;8505;49.456;8.164;2023-03-20T09:29:15;100208.50;;;10.97;78.43
16777;BME280;8505;49.456;8.164;2023-03-20T09:31:43;100200.34;;;10.82;78.75
16777;BME280;8505;49.456;8.164;2023-03-20T09:34:11;100205.84;;;10.97;77.65
16777;BME280;8505;49.456;8.164;2023-03-20T09:36:40;100208.84;;;11.02;77.66
16777;BME280;8505;49.456;8.164;2023-03-20T09:39:08;100212.84;;;11.30;75.94
16777;BME280;8505;49.456;8.164;2023-03-20T09:41:36;100205.75;;;11.39;74.94
16777;BME280;8505;49.456;8.164;2023-03-20T09:44:35;100206.72;;;11.38;74.59
16777;BME280;8505;49.456;8.164;2023-03-20T09:47:12;100200.94;;;11.66;72.82
16777;BME280;8505;49.456;8.164;2023-03-20T09:49:52;100202.94;;;11.72;72.01
16777;BME280;8505;49.456;8.164;2023-03-20T09:52:27;100222.16;;;11.58;71.76
16777;BME280;8505;49.456;8.164;2023-03-20T09:54:59;100209.91;;;11.73;71.52
16777;BME280;8505;49.456;8.164;2023-03-20T09:57:32;100210.41;;;11.77;71.27
16777;BME280;8505;49.456;8.164;2023-03-20T10:00:05;100212.09;;;11.78;71.47
16777;BME280;8505;49.456;8.164;2023-03-20T10:02:40;100214.69;;;11.94;72.04
16777;BME280;8505;49.456;8.164;2023-03-20T10:05:18;100216.38;;;12.50;69.25
16777;BME280;8505;49.456;8.164;2023-03-20T10:07:48;100207.56;;;13.20;66.49
16777;BME280;8505;49.456;8.164;2023-03-20T10:10:16;100212.94;;;13.04;66.05
16777;BME280;8505;49.456;8.164;2023-03-20T10:12:52;100200.75;;;13.40;64.07
16777;BME280;8505;49.456;8.164;2023-03-20T10:15:34;100198.81;;;13.57;63.27
16777;BME280;8505;49.456;8.164;2023-03-20T10:18:09;100187.50;;;13.92;60.82
16777;BME280;8505;49.456;8.164;2023-03-20T10:20:42;100189.06;;;15.11;57.36
16777;BME280;8505;49.456;8.164;2023-03-20T10:23:19;100188.81;;;15.27;57.43
16777;BME280;8505;49.456;8.164;2023-03-20T10:25:50;100184.78;;;14.95;56.59
16777;BME280;8505;49.456;8.164;2023-03-20T10:28:24;100195.50;;;14.80;57.32
16777;BME280;8505;49.456;8.164;2023-03-20T10:31:00;100184.00;;;14.80;57.05
16777;BME280;8505;49.456;8.164;2023-03-20T10:33:44;100177.69;;;14.66;57.28
16777;BME280;8505;49.456;8.164;2023-03-20T10:36:25;100180.13;;;14.82;57.35
16777;BME280;8505;49.456;8.164;2023-03-20T10:38:59;100177.22;;;15.20;55.72
16777;BME280;8505;49.456;8.164;2023-03-20T10:41:34;100171.81;;;15.77;54.08
16777;BME280;8505;49.456;8.164;2023-03-20T10:44:04;100172.44;;;15.79;53.48
16777;BME280;8505;49.456;8.164;2023-03-20T10:46:39;100168.28;;;15.27;55.24
16777;BME280;8505;49.456;8.164;2023-03-20T10:49:13;100178.88;;;15.00;54.48
16777;BME280;8505;49.456;8.164;2023-03-20T10:51:47;100177.41;;;14.97;52.89
16777;BME280;8505;49.456;8.164;2023-03-20T10:54:23;100167.09;;;14.73;52.61
16777;BME280;8505;49.456;8.164;2023-03-20T10:56:55;100175.75;;;14.16;54.40
16777;BME280;8505;49.456;8.164;2023-03-20T10:59:26;100174.09;;;14.59;51.88
16777;BME280;8505;49.456;8.164;2023-03-20T11:01:54;100172.56;;;14.06;53.16
16777;BME280;8505;49.456;8.164;2023-03-20T11:04:22;100182.56;;;14.04;53.65
16777;BME280;8505;49.456;8.164;2023-03-20T11:06:57;100169.69;;;14.37;52.52
16777;BME280;8505;49.456;8.164;2023-03-20T11:09:28;100168.41;;;14.33;52.69
16777;BME280;8505;49.456;8.164;2023-03-20T11:12:00;100167.50;;;15.12;50.46
16777;BME280;8505;49.456;8.164;2023-03-20T11:14:33;100166.81;;;15.46;49.42
16777;BME280;8505;49.456;8.164;2023-03-20T11:17:03;100159.47;;;15.06;50.10
16777;BME280;8505;49.456;8.164;2023-03-20T11:19:33;100159.22;;;15.99;47.31
16777;BME280;8505;49.456;8.164;2023-03-20T11:22:07;100160.97;;;15.15;49.52
16777;BME280;8505;49.456;8.164;2023-03-20T11:24:40;100149.28;;;14.94;49.71
16777;BME280;8505;49.456;8.164;2023-03-20T11:27:09;100144.97;;;14.93;49.16
16777;BME280;8505;49.456;8.164;2023-03-20T11:29:38;100145.09;;;14.85;49.96
16777;BME280;8505;49.456;8.164;2023-03-20T11:32:18;100149.28;;;14.94;50.20
16777;BME280;8505;49.456;8.164;2023-03-20T11:34:48;100141.66;;;15.34;50.19
16777;BME280;8505;49.456;8.164;2023-03-20T11:37:22;100147.38;;;15.10;50.00
16777;BME280;8505;49.456;8.164;2023-03-20T11:40:00;100143.00;;;15.02;51.24
16777;BME280;8505;49.456;8.164;2023-03-20T11:42:32;100133.66;;;15.55;49.96
16777;BME280;8505;49.456;8.164;2023-03-20T11:45:03;100125.72;;;15.68;49.06
16777;BME280;8505;49.456;8.164;2023-03-20T11:47:32;100128.69;;;15.80;49.15
16777;BME280;8505;49.456;8.164;2023-03-20T11:50:03;100128.16;;;15.63;49.72
16777;BME280;8505;49.456;8.164;2023-03-20T11:52:34;100130.69;;;16.06;47.81
16777;BME280;8505;49.456;8.164;2023-03-20T11:55:07;100128.34;;;15.62;48.97
16777;BME280;8505;49.456;8.164;2023-03-20T11:57:40;100132.13;;;15.74;48.94
16777;BME280;8505;49.456;8.164;2023-03-20T12:00:17;100135.69;;;15.53;48.26
16777;BME280;8505;49.456;8.164;2023-03-20T12:02:46;100129.25;;;15.26;48.27
16777;BME280;8505;49.456;8.164;2023-03-20T12:05:27;100126.22;;;15.29;49.18
16777;BME280;8505;49.456;8.164;2023-03-20T12:07:57;100127.63;;;15.74;47.96
16777;BME280;8505;49.456;8.164;2023-03-20T12:10:32;100122.09;;;15.27;46.99
16777;BME280;8505;49.456;8.164;2023-03-20T12:13:05;100126.47;;;15.13;46.66
16777;BME280;8505;49.456;8.164;2023-03-20T12:15:41;100123.16;;;15.32;46.20
16777;BME280;8505;49.456;8.164;2023-03-20T12:18:16;100120.13;;;15.35;46.23
16777;BME280;8505;49.456;8.164;2023-03-20T12:20:56;100118.72;;;15.39;46.35
16777;BME280;8505;49.456;8.164;2023-03-20T12:23:30;100110.34;;;15.70;45.10
16777;BME280;8505;49.456;8.164;2023-03-20T12:26:04;100113.41;;;15.67;45.25
16777;BME280;8505;49.456;8.164;2023-03-20T12:28:38;100111.09;;;16.33;43.75
16777;BME280;8505;49.456;8.164;2023-03-20T12:31:17;100105.34;;;15.95;43.44
16777;BME280;8505;49.456;8.164;2023-03-20T12:33:50;100114.16;;;16.30;42.86
16777;BME280;8505;49.456;8.164;2023-03-20T12:36:25;100103.66;;;16.76;41.58
16777;BME280;8505;49.456;8.164;2023-03-20T12:38:55;100097.09;;;16.92;40.64
16777;BME280;8505;49.456;8.164;2023-03-20T12:41:28;100086.41;;;16.98;40.48
16777;BME280;8505;49.456;8.164;2023-03-20T12:44:15;100099.66;;;16.52;39.96
16777;BME280;8505;49.456;8.164;2023-03-20T12:46:51;100093.22;;;16.34;40.68
16777;BME280;8505;49.456;8.164;2023-03-20T12:49:34;100086.84;;;15.94;41.06
16777;BME280;8505;49.456;8.164;2023-03-20T12:52:10;100089.06;;;16.25;41.49
16777;BME280;8505;49.456;8.164;2023-03-20T12:54:54;100087.59;;;16.63;40.22
16777;BME280;8505;49.456;8.164;2023-03-20T12:57:33;100077.56;;;16.85;39.91
16777;BME280;8505;49.456;8.164;2023-03-20T13:00:15;100086.38;;;16.25;40.55
16777;BME280;8505;49.456;8.164;2023-03-20T13:02:56;100089.06;;;16.25;41.14
16777;BME280;8505;49.456;8.164;2023-03-20T13:05:34;100084.13;;;16.22;40.38
16777;BME280;8505;49.456;8.164;2023-03-20T13:08:21;100080.78;;;16.13;40.88
16777;BME280;8505;49.456;8.164;2023-03-20T13:10:56;100075.38;;;16.00;41.88
16777;BME280;8505;49.456;8.164;2023-03-20T13:13:32;100071.63;;;16.29;40.82
16777;BME280;8505;49.456;8.164;2023-03-20T13:16:12;100076.97;;;16.29;40.54
16777;BME280;8505;49.456;8.164;2023-03-20T13:18:51;100061.97;;;15.03;42.55
16777;BME280;8505;49.456;8.164;2023-03-20T13:21:26;100068.19;;;14.89;42.55
16777;BME280;8505;49.456;8.164;2023-03-20T13:24:06;100062.22;;;15.08;42.34
16777;BME280;8505;49.456;8.164;2023-03-20T13:26:43;100064.75;;;14.95;42.95
16777;BME280;8505;49.456;8.164;2023-03-20T13:29:21;100063.91;;;15.44;42.45
16777;BME280;8505;49.456;8.164;2023-03-20T13:32:02;100063.28;;;15.14;42.92